Latest Weather Observations for Roxby Downs

IDS60801

Issued at 10:35 pm CDT Thursday 30 October 2014 (issued every 30 minutes, with the page automatically refreshed every 10 minutes)

About weather observations | Map of weather stations | Latest weather observations for SA | Other Formats
Station Details ID: 016096 Name: OLYMPIC DAM AERODROME Lat: -30.48 Lon: 136.88 Height: 98.5 m
Data from the previous 72 hours. | See also: Recent months at Roxby Downs
Date/Time
CDT
Temp
°C
App
Temp
°C
Dew
Point
Rel
Hum
%
Delta-T
°C
Wind Press
QNH
hPa
Press
MSL
hPa
Rain
since 9 am
mm
Dir
 
Spd
km/h
Gust
km/h
Spd
kts
Gust
kts
30/10:30pm 29.4 25.1 -1.9 13 14.5 N 11 13 6 7 1010.2 1009.9 0.0
30/10:00pm 29.2 25.1 -3.1 12 14.6 N 9 11 5 6 1010.0 1009.7 0.0
30/09:30pm 29.5 25.4 -2.9 12 14.7 NE 9 13 5 7 1009.8 1009.5 0.0
30/09:00pm 30.4 26.8 -3.3 11 15.3 NNE 6 7 3 4 1009.6 1009.3 0.0
30/08:30pm 31.8 27.6 -3.5 10 16.2 N 9 11 5 6 1009.6 1009.3 0.0
30/08:00pm 31.3 28.8 -3.9 10 15.9 CALM 0 0 0 0 1009.2 1008.9 0.0
30/07:30pm 32.7 30.3 -2.9 10 16.6 CALM 0 0 0 0 1009.2 1008.9 0.0
30/07:00pm 33.9 30.1 -3.4 9 17.4 NW 7 11 4 6 1009.2 1008.9 0.0
30/06:30pm 34.5 30.4 -2.9 9 17.7 W 9 15 5 8 1009.4 1009.1 0.0
30/06:00pm 34.9 30.1 -2.6 9 17.8 WNW 13 19 7 10 1009.5 1009.2 0.0
30/05:30pm 35.2 29.7 -2.4 9 18.0 W 17 24 9 13 1009.6 1009.3 0.0
30/05:00pm 35.2 29.7 -2.4 9 18.0 WNW 17 30 9 16 1009.7 1009.4 0.0
30/04:30pm 36.4 30.8 -3.1 8 18.8 W 17 24 9 13 1009.9 1009.6 0.0
30/04:00pm 35.9 31.6 -1.9 9 18.3 WSW 11 20 6 11 1010.2 1009.9 0.0
30/03:30pm 35.4 30.6 -2.3 9 18.1 WSW 13 20 7 11 1010.7 1010.4 0.0
30/03:00pm 34.7 30.3 -2.8 9 17.7 WNW 11 20 6 11 1011.0 1010.7 0.0
30/02:30pm 35.1 31.1 -2.5 9 17.9 ESE 9 15 5 8 1011.5 1011.2 0.0
30/02:00pm 35.1 30.3 -2.5 9 17.9 N 13 20 7 11 1012.0 1011.7 0.0
30/01:30pm 34.2 30.1 -3.2 9 17.5 N 9 17 5 9 1012.4 1012.1 0.0
30/01:00pm 34.0 29.1 -3.3 9 17.4 N 13 22 7 12 1012.8 1012.5 0.0
30/12:30pm 33.4 29.0 -2.3 10 16.9 N 11 24 6 13 1013.4 1013.1 0.0
30/12:00pm 33.0 28.7 -1.4 11 16.4 N 11 22 6 12 1014.0 1013.8 0.0
30/11:30am 31.6 26.8 -2.4 11 15.8 NE 13 22 7 12 1014.3 1014.1 0.0
30/11:00am 31.3 27.2 -0.4 13 15.2 NE 11 19 6 10 1014.5 1014.3 0.0
30/10:30am 29.5 25.6 1.1 16 13.8 ENE 11 15 6 8 1014.7 1014.5 0.0
30/10:00am 29.8 25.9 1.3 16 13.9 ENE 11 17 6 9 1014.8 1014.6 0.0
30/09:30am 27.9 24.5 4.2 22 12.0 E 11 15 6 8 1015.0 1014.8 0.0
30/09:00am 26.7 23.6 5.6 26 10.9 ESE 11 15 6 8 1015.1 1014.9 0.0
30/08:30am 24.3 21.3 6.1 31 9.4 ESE 11 15 6 8 1015.0 1014.8 0.0
30/08:00am 20.8 19.6 4.4 34 8.0 CALM 0 0 0 0 1014.9 1014.7 0.0
30/07:30am 19.0 17.3 2.0 32 7.8 CALM 0 6 0 3 1014.5 1014.3 0.0
30/07:00am 19.1 15.7 1.6 31 8.0 S 9 11 5 6 1014.5 1014.3 0.0
30/06:30am 18.8 15.7 1.3 31 7.9 SSE 7 9 4 5 1013.7 1013.4 0.0
30/06:00am 19.1 15.9 0.7 29 8.2 ESE 7 9 4 5 1013.6 1013.3 0.0
30/05:30am 19.3 15.1 -0.7 26 8.7 SSE 11 13 6 7 1013.7 1013.4 0.0
30/05:00am 19.8 16.2 0.3 27 8.7 SSE 9 11 5 6 1013.5 1013.2 0.0
30/04:30am 20.7 17.2 -1.2 23 9.5 S 7 9 4 5 1013.6 1013.3 0.0
30/04:00am 21.0 17.1 -1.5 22 9.8 S 9 11 5 6 1013.6 1013.3 0.0
30/03:30am 21.1 17.3 -0.8 23 9.7 SSE 9 11 5 6 1013.3 1013.0 0.0
30/03:00am 22.5 18.3 -0.9 21 10.4 E 11 17 6 9 1013.3 1013.0 0.0
30/02:30am 21.6 17.4 -1.0 22 10.0 E 11 13 6 7 1013.6 1013.3 0.0
30/02:00am 19.5 15.7 -1.0 25 8.9 E 9 15 5 8 1013.9 1013.6 0.0
30/01:30am 17.4 13.3 -3.4 24 8.4 SSE 9 9 5 5 1014.4 1014.2 0.0
30/01:00am 18.6 14.6 -5.4 19 9.4 SE 7 9 4 5 1014.7 1014.5 0.0
30/12:30am 20.2 16.7 -2.8 21 9.7 SSE 6 9 3 5 1015.0 1014.8 0.0
30/12:00am 21.9 17.9 -2.0 20 10.4 SSE 9 9 5 5 1015.3 1015.1 0.0
 
Date/Time
CDT
Temp
°C
App
Temp
°C
Dew
Point
Rel
Hum
%
Delta-T
°C
Wind Press
QNH
hPa
Press
MSL
hPa
Rain
since 9 am
mm
Dir
 
Spd
km/h
Gust
km/h
Spd
kts
Gust
kts
29/11:30pm 21.3 17.3 -2.5 20 10.2 SSE 9 13 5 7 1015.2 1015.0 0.0
29/11:00pm 24.1 20.2 -1.7 18 11.5 S 9 11 5 6 1015.4 1015.2 0.0
29/10:30pm 25.5 21.2 -1.3 17 12.1 S 11 15 6 8 1015.5 1015.3 0.0
29/10:00pm 21.4 17.2 -8.1 13 11.3 S 7 7 4 4 1015.4 1015.2 0.0
29/09:30pm 22.9 18.7 -8.0 12 12.0 S 7 9 4 5 1015.0 1014.8 0.0
29/09:00pm 24.5 21.6 -7.9 11 12.8 CALM 0 0 0 0 1014.8 1014.6 0.0
29/08:30pm 27.2 24.4 -7.0 10 14.2 CALM 0 0 0 0 1014.5 1014.3 0.0
29/08:00pm 29.7 26.9 -6.5 9 15.5 CALM 0 0 0 0 1014.2 1014.0 0.0
29/07:30pm 31.6 27.8 -5.1 9 16.3 WSW 6 7 3 4 1014.0 1013.8 0.0
29/07:00pm 32.1 28.8 -4.7 9 16.5 SW 4 9 2 5 1013.9 1013.6 0.0
29/06:30pm 32.1 28.2 -6.3 8 16.8 NNE 6 7 3 4 1013.9 1013.6 0.0
29/06:00pm 32.5 28.5 -6.0 8 17.0 NNE 7 11 4 6 1013.9 1013.6 0.0
29/05:30pm 33.6 28.1 -5.2 8 17.5 WNW 15 20 8 11 1013.9 1013.6 0.0
29/05:00pm 33.3 29.5 -3.8 9 17.1 NW 7 13 4 7 1014.0 1013.8 0.0
29/04:30pm 33.0 29.4 -4.0 9 16.9 NNW 6 17 3 9 1014.2 1014.0 0.0
29/04:00pm 33.1 28.9 -4.0 9 17.0 W 9 17 5 9 1014.4 1014.2 0.0
29/03:30pm 33.4 29.2 -3.7 9 17.1 W 9 13 5 7 1014.9 1014.7 0.0
29/03:00pm 31.9 27.2 -4.9 9 16.4 NW 11 20 6 11 1015.3 1015.1 0.0
29/02:30pm 31.8 27.3 -3.5 10 16.1 SW 11 17 6 9 1015.6 1015.4 0.0
29/02:00pm 31.1 26.7 -2.8 11 15.6 NNW 11 20 6 11 1016.3 1016.0 0.0
29/01:30pm 30.5 26.9 -2.1 12 15.1 NNE 7 11 4 6 1016.7 1016.4 0.0
29/01:00pm 29.6 24.9 -1.7 13 14.5 NE 13 20 7 11 1017.1 1016.8 0.0
29/12:30pm 29.6 25.9 0.2 15 14.1 E 9 17 5 9 1017.6 1017.3 0.0
29/12:00pm 29.4 25.0 0.1 15 14.0 E 13 19 7 10 1018.2 1017.9 0.0
29/11:30am 27.9 24.2 2.2 19 12.6 NNE 11 17 6 9 1018.7 1018.4 0.0
29/11:00am 27.5 23.8 2.6 20 12.3 E 11 17 6 9 1019.0 1018.7 0.0
29/10:30am 26.4 22.5 3.6 23 11.3 ENE 13 19 7 10 1019.3 1019.0 0.0
29/10:00am 25.7 22.7 4.2 25 10.8 E 9 17 5 9 1019.3 1019.0 0.0
29/09:30am 23.3 20.4 4.8 30 9.2 ESE 9 15 5 8 1019.5 1019.2 0.0
29/09:00am 21.7 18.8 4.7 33 8.4 SE 9 13 5 7 1019.5 1019.2 0.0
29/08:30am 20.4 17.3 5.6 38 7.3 ESE 11 15 6 8 1019.3 1019.0 0.0
29/08:00am 17.7 15.2 4.6 42 6.3 SE 7 11 4 6 1019.2 1018.9 0.0
29/07:30am 15.0 13.3 1.9 41 5.8 CALM 0 0 0 0 1018.9 1018.6 0.0
29/07:00am 12.2 8.8 -0.6 41 5.2 S 7 9 4 5 1018.9 1018.6 0.0
29/06:30am 11.3 7.8 -1.5 41 5.0 SSE 7 9 4 5 1018.5 1018.2 0.0
29/06:00am 12.4 8.9 -1.1 39 5.4 S 7 9 4 5 1018.4 1018.1 0.0
29/05:30am 13.5 9.6 -1.3 36 6.0 SSE 9 11 5 6 1018.1 1017.8 0.0
29/05:00am 15.1 10.9 -0.6 34 6.6 SE 11 13 6 7 1017.7 1017.4 0.0
29/04:30am 16.8 12.3 2.0 37 6.6 ESE 15 19 8 10 1017.5 1017.2 0.0
29/04:00am 12.9 8.9 -2.6 34 6.1 SE 9 11 5 6 1017.6 1017.3 0.0
29/03:30am 13.2 8.7 -3.1 32 6.3 SSE 11 15 6 8 1017.7 1017.4 0.0
29/03:00am 12.1 8.4 -4.5 31 6.2 SE 6 7 3 4 1017.8 1017.5 0.0
29/02:30am 13.9 11.0 -1.3 35 6.2 SE 4 15 2 8 1018.0 1017.7 0.0
29/02:00am 12.4 9.8 -5.1 29 6.5 CALM 0 0 0 0 1018.0 1017.7 0.0
29/01:30am 12.9 10.2 -5.6 27 6.8 CALM 0 0 0 0 1018.3 1018.0 0.0
29/01:00am 13.5 10.9 -5.1 27 6.9 CALM 0 0 0 0 1018.5 1018.2 0.0
29/12:30am 14.6 11.9 -2.8 30 6.9 SSW 2 7 1 4 1018.6 1018.3 0.0
29/12:00am 14.8 10.9 -5.0 25 7.5 S 7 7 4 4 1018.7 1018.4 0.0
 
Date/Time
CDT
Temp
°C
App
Temp
°C
Dew
Point
Rel
Hum
%
Delta-T
°C
Wind Press
QNH
hPa
Press
MSL
hPa
Rain
since 9 am
mm
Dir
 
Spd
km/h
Gust
km/h
Spd
kts
Gust
kts
28/11:30pm 15.7 11.8 -4.2 25 7.7 SSW 7 9 4 5 1018.7 1018.4 0.0
28/11:00pm 16.3 12.5 -3.7 25 7.9 S 7 7 4 4 1018.8 1018.5 0.0
28/10:30pm 17.2 13.5 -4.7 22 8.6 SSE 6 7 3 4 1018.8 1018.5 0.0
28/10:00pm 18.4 14.5 -4.3 21 9.1 SSE 7 7 4 4 1018.7 1018.4 0.0
28/09:30pm 20.3 16.5 -3.4 20 9.8 SE 7 7 4 4 1018.5 1018.2 0.0
28/09:00pm 22.4 18.6 -1.0 21 10.4 SSE 9 9 5 5 1018.1 1017.8 0.0
28/08:30pm 23.8 19.9 -1.2 19 11.2 SSE 9 9 5 5 1017.8 1017.5 0.0
28/08:00pm 25.6 21.4 -1.2 17 12.2 S 11 13 6 7 1017.7 1017.4 0.0
28/07:30pm 26.6 21.6 -1.3 16 12.7 S 15 19 8 10 1017.5 1017.2 0.0
28/07:00pm 27.5 22.1 -1.4 15 13.3 SSW 17 22 9 12 1017.5 1017.2 0.0
28/06:30pm 28.1 23.0 -1.9 14 13.7 SSW 15 22 8 12 1017.4 1017.1 0.0
28/06:00pm 28.4 23.6 -2.6 13 14.0 S 13 20 7 11 1017.2 1016.9 0.0
28/05:30pm 28.3 23.2 -1.7 14 13.8 SSW 15 26 8 14 1017.2 1016.9 0.0
28/05:00pm 28.3 22.7 -2.7 13 14.0 SSW 17 24 9 13 1017.3 1017.0 0.0
28/04:30pm 27.7 22.7 -1.3 15 13.3 S 15 26 8 14 1017.5 1017.2 0.0
28/04:00pm 28.1 23.5 -0.9 15 13.5 S 13 24 7 13 1017.8 1017.5 0.0
28/03:30pm 27.3 22.7 -0.7 16 13.0 SSW 13 26 7 14 1018.2 1017.9 0.0
28/03:00pm 26.8 22.4 0.5 18 12.4 SSW 13 20 7 11 1018.5 1018.2 0.0
28/02:30pm 26.6 22.1 -0.4 17 12.5 S 13 20 7 11 1019.0 1018.7 0.0
28/02:00pm 25.1 21.0 -0.1 19 11.6 SSE 11 17 6 9 1019.5 1019.2 0.0
28/01:30pm 24.8 20.9 1.0 21 11.2 SSW 11 20 6 11 1019.8 1019.5 0.0
28/01:00pm 23.9 18.5 1.5 23 10.6 S 19 32 10 17 1020.0 1019.7 0.0
28/12:30pm 23.1 19.1 3.1 27 9.6 SSE 13 24 7 13 1020.5 1020.2 0.0
28/12:00pm 21.7 16.7 3.4 30 8.8 SE 19 22 10 12 1020.8 1020.5 0.0
28/11:30am 20.7 16.0 3.4 32 8.2 S 17 28 9 15 1021.3 1021.0 0.0
28/11:00am 19.7 15.5 3.8 35 7.6 S 15 22 8 12 1021.6 1021.3 0.0
28/10:30am 19.1 14.7 4.8 39 6.9 SSE 17 24 9 13 1021.8 1021.5 0.0
28/10:00am 18.0 13.2 5.6 44 6.1 S 20 26 11 14 1021.9 1021.6 0.0
28/09:30am 17.6 12.9 6.2 47 5.6 SSE 20 30 11 16 1021.9 1021.6 0.0
28/09:00am 17.1 12.6 6.9 51 5.1 SSE 20 26 11 14 1021.9 1021.6 0.0
28/08:30am 15.8 10.9 7.0 56 4.3 S 22 30 12 16 1021.8 1021.5 0.0
28/08:00am 15.4 11.2 7.4 59 4.0 S 19 28 10 15 1021.7 1021.4 0.0
28/07:30am 14.1 10.5 6.9 62 3.5 S 15 20 8 11 1021.3 1021.0 0.0
28/07:00am 12.8 9.6 6.8 67 2.9 S 13 17 7 9 1020.8 1020.5 0.0
28/06:30am 12.6 9.7 6.6 67 2.9 S 11 13 6 7 1020.5 1020.2 0.0
28/06:00am 13.4 9.8 6.7 64 3.2 S 15 19 8 10 1020.1 1019.8 0.0
28/05:30am 13.5 9.9 6.8 64 3.2 S 15 17 8 9 1019.8 1019.5 0.0
28/05:00am 13.7 10.1 6.8 63 3.4 S 15 19 8 10 1019.5 1019.2 0.0
28/04:30am 14.2 10.6 6.8 61 3.6 SSE 15 20 8 11 1019.3 1019.0 0.0
28/04:00am 14.5 11.4 7.1 61 3.6 S 13 19 7 10 1019.2 1018.9 0.0
28/03:30am 15.0 11.5 7.1 59 3.9 SSE 15 20 8 11 1019.2 1018.9 0.0
28/03:00am 15.4 11.5 7.2 58 4.1 S 17 22 9 12 1019.2 1018.9 0.0
28/02:30am 16.0 12.5 7.0 55 4.5 S 15 20 8 11 1019.2 1018.9 0.0
28/02:00am 16.5 12.8 6.3 51 5.0 S 15 20 8 11 1019.2 1018.9 0.0
28/01:30am 17.2 13.5 6.1 48 5.4 S 15 22 8 12 1019.2 1018.9 0.0
28/01:00am 17.5 13.9 4.8 43 6.1 SSE 13 20 7 11 1019.2 1018.9 0.0
28/12:30am 18.4 14.4 2.7 35 7.2 SSE 13 17 7 9 1019.1 1018.8 0.0
28/12:00am 19.1 13.9 0.2 28 8.3 S 17 22 9 12 1018.8 1018.5 0.0
 
Date/Time
CDT
Temp
°C
App
Temp
°C
Dew
Point
Rel
Hum
%
Delta-T
°C
Wind Press
QNH
hPa
Press
MSL
hPa
Rain
since 9 am
mm
Dir
 
Spd
km/h
Gust
km/h
Spd
kts
Gust
kts
27/11:30pm 19.2 14.7 -0.2 27 8.5 SSW 13 17 7 9 1018.6 1018.3 0.0
27/11:00pm 19.7 15.3 0.2 27 8.7 SSW 13 15 7 8 1018.5 1018.2 0.0

Other Formats:

Comma delimited format used in spreadsheet applications
http://www.bom.gov.au/fwo/IDS60801/IDS60801.95658.axf

JavaScript Object Notation format (JSON) in row-major order
http://www.bom.gov.au/fwo/IDS60801/IDS60801.95658.json